createdAt,value
2023-01-01T00:04:33.464Z,22.13
2023-01-01T00:09:35.380Z,24.03
2023-01-01T00:14:37.310Z,20.83
2023-01-01T00:19:39.278Z,21.73
2023-01-01T00:24:41.250Z,17.93
2023-01-01T00:29:43.068Z,18.13
2023-01-01T00:34:44.901Z,15.83
2023-01-01T00:39:46.771Z,14.67
2023-01-01T00:44:48.685Z,13.77
2023-01-01T00:49:50.526Z,16.00
2023-01-01T00:54:52.404Z,9.03
2023-01-01T00:59:54.315Z,15.03
2023-01-01T01:04:56.234Z,12.50
2023-01-01T01:09:58.390Z,10.18
2023-01-01T01:15:00.457Z,14.85
2023-01-01T01:20:02.277Z,9.47
2023-01-01T01:25:05.319Z,11.38
2023-01-01T01:30:07.812Z,11.35
2023-01-01T01:35:10.133Z,8.90
2023-01-01T01:40:12.262Z,7.90
2023-01-01T01:45:15.409Z,6.97
2023-01-01T01:50:23.071Z,6.22
2023-01-01T01:55:24.929Z,9.60
2023-01-01T02:00:26.759Z,7.43
2023-01-01T02:05:28.606Z,4.97
2023-01-01T02:10:30.479Z,6.10
2023-01-01T02:15:37.049Z,5.90
2023-01-01T02:21:04.854Z,5.93
2023-01-01T02:26:29.353Z,5.55
2023-01-01T02:31:49.806Z,6.18
2023-01-01T02:36:52.329Z,7.00
2023-01-01T02:41:54.936Z,8.52
2023-01-01T02:52:33.293Z,5.88
2023-01-01T02:57:41.371Z,6.40
2023-01-01T03:02:51.366Z,6.38
2023-01-01T03:08:25.525Z,7.07
2023-01-01T03:13:33.467Z,7.10
2023-01-01T03:18:57.197Z,6.53
2023-01-01T03:29:00.763Z,8.25
2023-01-01T03:34:07.099Z,5.37
2023-01-01T03:39:12.496Z,8.65
2023-01-01T03:44:24.329Z,8.23
2023-01-01T03:49:26.240Z,9.00
2023-01-01T03:54:58.556Z,8.10
2023-01-01T04:00:05.769Z,9.13
2023-01-01T04:05:07.887Z,8.60
2023-01-01T04:10:09.910Z,8.85
2023-01-01T04:15:11.786Z,8.93
2023-01-01T04:20:13.727Z,10.53
2023-01-01T04:25:15.679Z,9.40
2023-01-01T04:30:17.585Z,12.17
2023-01-01T04:41:09.828Z,11.23
2023-01-01T04:46:11.678Z,9.23
2023-01-01T04:51:20.006Z,10.37
2023-01-01T04:56:22.404Z,10.70
2023-01-01T05:01:26.590Z,10.23
2023-01-01T05:06:31.940Z,9.60
2023-01-01T05:11:37.356Z,9.20
2023-01-01T05:16:39.622Z,11.57
2023-01-01T05:21:41.467Z,9.52
2023-01-01T05:26:44.233Z,9.70
2023-01-01T05:31:46.242Z,9.55
2023-01-01T05:36:48.091Z,8.90
2023-01-01T05:41:52.467Z,10.40
2023-01-01T05:46:54.385Z,8.80
2023-01-01T05:52:04.985Z,7.87
2023-01-01T05:57:25.690Z,8.00
2023-01-01T06:02:31.015Z,8.97
2023-01-01T06:07:32.955Z,8.18
2023-01-01T06:12:34.945Z,6.40
2023-01-01T06:17:36.769Z,6.67
2023-01-01T06:22:38.610Z,8.40
2023-01-01T06:27:41.000Z,7.80
2023-01-01T06:32:42.967Z,9.98
2023-01-01T06:37:45.167Z,9.07
2023-01-01T06:42:55.782Z,9.73
2023-01-01T06:48:03.555Z,8.48
2023-01-01T06:53:05.364Z,7.45
2023-01-01T06:58:07.274Z,8.20
2023-01-01T07:03:12.356Z,8.30
2023-01-01T07:08:14.332Z,8.52
2023-01-01T07:13:16.177Z,7.80
2023-01-01T07:18:21.626Z,7.85
2023-01-01T07:28:34.579Z,7.28
2023-01-01T07:33:48.212Z,7.95
2023-01-01T07:39:07.933Z,6.20
2023-01-01T07:44:12.864Z,6.72
2023-01-01T07:49:14.804Z,6.67
2023-01-01T07:54:16.555Z,6.83
2023-01-01T07:59:20.531Z,7.53
2023-01-01T08:04:22.954Z,7.28
2023-01-01T08:09:24.917Z,9.32
2023-01-01T08:14:26.754Z,5.30
2023-01-01T08:19:28.596Z,7.00
2023-01-01T08:24:45.493Z,7.83
2023-01-01T08:29:47.544Z,7.15
2023-01-01T08:34:49.374Z,9.07
2023-01-01T08:40:00.770Z,6.83
2023-01-01T08:45:02.618Z,6.97
2023-01-01T08:50:05.083Z,10.02
2023-01-01T08:55:12.766Z,7.85
2023-01-01T09:00:15.375Z,8.65
2023-01-01T09:05:17.136Z,8.70
2023-01-01T09:10:18.961Z,8.90
2023-01-01T09:15:21.023Z,7.87
2023-01-01T09:20:22.999Z,8.63
2023-01-01T09:25:24.889Z,6.50
2023-01-01T09:30:27.225Z,13.00
2023-01-01T09:35:29.903Z,11.98
2023-01-01T09:46:04.422Z,8.63
2023-01-01T09:51:07.682Z,9.60
2023-01-01T09:56:13.935Z,11.65
2023-01-01T10:01:30.909Z,11.07
2023-01-01T10:06:33.947Z,10.13
2023-01-01T10:11:44.921Z,9.10
2023-01-01T10:16:48.475Z,10.73
2023-01-01T10:21:50.402Z,9.52
2023-01-01T10:26:52.209Z,10.77
2023-01-01T10:31:54.165Z,10.00
2023-01-01T10:37:00.481Z,7.33
2023-01-01T10:42:03.009Z,7.32
2023-01-01T10:47:20.240Z,8.68
2023-01-01T10:52:25.000Z,7.50
2023-01-01T10:57:38.819Z,7.57
2023-01-01T11:02:40.804Z,6.72
2023-01-01T11:07:42.956Z,6.63
2023-01-01T11:18:15.180Z,6.25
2023-01-01T11:23:30.361Z,6.63
2023-01-01T11:28:33.451Z,5.55
2023-01-01T11:33:37.765Z,8.73
2023-01-01T11:38:39.774Z,5.63
2023-01-01T11:43:45.449Z,5.47
2023-01-01T11:48:47.285Z,8.00
2023-01-01T11:53:49.093Z,5.40
2023-01-01T11:58:54.149Z,6.50
2023-01-01T12:04:09.422Z,6.13
2023-01-01T12:09:18.115Z,5.07
2023-01-01T12:14:41.835Z,6.13
2023-01-01T12:20:01.462Z,5.20
2023-01-01T12:25:05.030Z,5.80
2023-01-01T12:30:25.614Z,5.20
2023-01-01T12:36:21.567Z,5.05
2023-01-01T12:42:07.758Z,5.70
2023-01-01T12:47:18.131Z,5.82
2023-01-01T12:52:31.930Z,6.13
2023-01-01T12:57:42.740Z,5.75
2023-01-01T13:03:21.976Z,5.88
2023-01-01T13:08:23.872Z,5.30
2023-01-01T13:13:25.697Z,5.00
2023-01-01T13:18:32.020Z,5.07
2023-01-01T13:23:33.767Z,5.45
2023-01-01T13:28:35.597Z,6.60
2023-01-01T13:33:37.457Z,6.63
2023-01-01T13:38:49.732Z,4.90
2023-01-01T13:43:54.408Z,7.10
2023-01-01T13:49:25.103Z,4.93
2023-01-01T13:55:04.363Z,4.90
2023-01-01T14:00:24.922Z,4.50
2023-01-01T14:05:32.588Z,5.53
2023-01-01T14:10:35.634Z,5.45
2023-01-01T14:15:38.476Z,6.30
2023-01-01T14:20:42.408Z,4.90
2023-01-01T14:25:44.274Z,4.70
2023-01-01T14:30:46.170Z,5.17
2023-01-01T14:35:52.363Z,5.40
2023-01-01T14:41:29.076Z,5.55
2023-01-01T14:46:31.048Z,5.63
2023-01-01T14:51:32.892Z,6.07
2023-01-01T14:56:36.977Z,6.50
2023-01-01T15:01:38.884Z,5.05
2023-01-01T15:06:41.068Z,5.63
2023-01-01T15:11:42.949Z,4.78
2023-01-01T15:16:44.841Z,6.17
2023-01-01T15:21:46.669Z,6.63
2023-01-01T15:26:58.884Z,3.93
2023-01-01T15:32:26.128Z,5.68
2023-01-01T15:37:43.596Z,5.45
2023-01-01T15:42:57.378Z,6.00
2023-01-01T15:48:19.581Z,5.90
2023-01-01T15:53:21.311Z,6.85
2023-01-01T15:58:32.982Z,4.67
2023-01-01T16:03:35.026Z,7.07
2023-01-01T16:08:36.902Z,6.18
2023-01-01T16:13:38.694Z,9.13
2023-01-01T16:18:40.481Z,5.90
2023-01-01T16:23:42.407Z,4.80
2023-01-01T16:28:44.223Z,6.20
2023-01-01T16:33:53.551Z,6.57
2023-01-01T16:38:56.103Z,7.80
2023-01-01T16:43:57.911Z,6.72
2023-01-01T16:48:59.701Z,6.27
2023-01-01T16:54:01.775Z,8.27
2023-01-01T16:59:03.913Z,6.28
2023-01-01T17:04:05.814Z,6.93
2023-01-01T17:09:08.008Z,7.10
2023-01-01T17:14:09.985Z,6.55
2023-01-01T17:19:14.885Z,6.80
2023-01-01T17:24:18.878Z,6.60
2023-01-01T17:29:21.338Z,6.93
2023-01-01T17:34:23.241Z,6.60
2023-01-01T17:39:25.153Z,10.03
2023-01-01T17:44:27.118Z,9.33
2023-01-01T17:49:28.904Z,9.27
2023-01-01T17:54:30.693Z,8.77
2023-01-01T17:59:33.640Z,7.97
2023-01-01T18:04:35.402Z,9.25
2023-01-01T18:09:37.327Z,9.30
2023-01-01T18:14:39.169Z,8.30
2023-01-01T18:19:44.553Z,9.73
2023-01-01T18:24:50.109Z,10.65
2023-01-01T18:29:51.998Z,10.17
2023-01-01T18:34:53.788Z,9.13
2023-01-01T18:39:55.776Z,11.13
2023-01-01T18:45:13.263Z,14.10
2023-01-01T18:50:22.978Z,12.38
2023-01-01T18:55:24.853Z,10.57
2023-01-01T19:00:28.387Z,11.67
2023-01-01T19:05:34.680Z,11.25
2023-01-01T19:10:49.316Z,10.75
2023-01-01T19:16:09.493Z,11.90
2023-01-01T19:21:11.316Z,13.45
2023-01-01T19:26:33.934Z,8.77
2023-01-01T19:31:36.117Z,9.68
2023-01-01T19:36:38.116Z,10.82
2023-01-01T19:41:39.989Z,11.02
2023-01-01T19:46:41.929Z,10.57
2023-01-01T19:51:43.818Z,11.90
2023-01-01T19:56:46.039Z,12.23
2023-01-01T20:02:03.168Z,9.98
2023-01-01T20:07:09.687Z,10.75
2023-01-01T20:12:11.552Z,10.33
2023-01-01T20:17:13.426Z,10.60
2023-01-01T20:22:15.270Z,8.83
2023-01-01T20:27:17.316Z,10.23
2023-01-01T20:32:19.292Z,9.02
2023-01-01T20:37:21.250Z,7.75
2023-01-01T20:42:23.166Z,8.37
2023-01-01T20:47:25.046Z,6.60
2023-01-01T20:52:26.846Z,4.80
2023-01-01T20:57:28.740Z,5.30
2023-01-01T21:02:30.722Z,6.27
2023-01-01T21:07:33.062Z,6.18
2023-01-01T21:12:36.629Z,7.43
2023-01-01T21:17:38.504Z,6.22
2023-01-01T21:22:40.743Z,13.30
2023-01-01T21:27:42.652Z,5.45
2023-01-01T21:32:45.767Z,5.00
2023-01-01T21:37:49.043Z,4.65
2023-01-01T21:43:06.180Z,4.05
2023-01-01T21:48:30.884Z,4.82
2023-01-01T21:53:36.337Z,2.60
2023-01-01T21:58:42.157Z,2.50
2023-01-01T22:03:44.029Z,2.55
2023-01-01T22:08:46.144Z,2.60
2023-01-01T22:13:48.052Z,2.38
2023-01-01T22:18:49.944Z,2.53
2023-01-01T22:23:54.031Z,3.10
2023-01-01T22:29:01.859Z,3.08
2023-01-01T22:34:03.973Z,2.55
2023-01-01T22:39:13.999Z,2.40
2023-01-01T22:44:15.991Z,2.90
2023-01-01T22:49:24.396Z,3.07
2023-01-01T22:54:26.296Z,3.35
2023-01-01T22:59:28.108Z,3.60
2023-01-01T23:04:30.054Z,3.50
2023-01-01T23:09:32.069Z,4.27
2023-01-01T23:14:38.602Z,4.77
2023-01-01T23:19:40.994Z,4.85
2023-01-01T23:24:42.818Z,3.07
2023-01-01T23:29:44.721Z,3.07
2023-01-01T23:34:46.540Z,3.50
2023-01-01T23:39:48.511Z,2.50
2023-01-01T23:44:50.361Z,2.10
2023-01-01T23:49:52.210Z,1.73
2023-01-01T23:54:54.263Z,1.30
2023-01-01T23:59:56.152Z,0.98
